sensor_id;sensor_type;location;lat;lon;timestamp;P1;durP1;ratioP1;P2;durP2;ratioP2
1452;SDS011;720;47.738;7.998;2023-01-01T00:00:04;23.90;;;18.07;;
1452;SDS011;720;47.738;7.998;2023-01-01T00:02:31;23.77;;;14.18;;
1452;SDS011;720;47.738;7.998;2023-01-01T00:04:57;9.68;;;5.45;;
1452;SDS011;720;47.738;7.998;2023-01-01T00:07:22;3.83;;;3.40;;
1452;SDS011;720;47.738;7.998;2023-01-01T00:09:48;2.83;;;2.00;;
1452;SDS011;720;47.738;7.998;2023-01-01T00:12:32;3.92;;;3.60;;
1452;SDS011;720;47.738;7.998;2023-01-01T00:14:57;5.57;;;3.23;;
1452;SDS011;720;47.738;7.998;2023-01-01T00:17:23;5.97;;;3.30;;
1452;SDS011;720;47.738;7.998;2023-01-01T00:19:49;9.57;;;7.13;;
1452;SDS011;720;47.738;7.998;2023-01-01T00:22:14;7.77;;;7.20;;
1452;SDS011;720;47.738;7.998;2023-01-01T00:24:40;8.43;;;7.57;;
1452;SDS011;720;47.738;7.998;2023-01-01T00:27:06;11.13;;;6.03;;
1452;SDS011;720;47.738;7.998;2023-01-01T00:29:31;13.50;;;6.40;;
1452;SDS011;720;47.738;7.998;2023-01-01T00:31:58;5.80;;;5.30;;
1452;SDS011;720;47.738;7.998;2023-01-01T00:34:23;1.98;;;1.83;;
1452;SDS011;720;47.738;7.998;2023-01-01T00:36:49;5.17;;;4.67;;
1452;SDS011;720;47.738;7.998;2023-01-01T00:39:15;2.80;;;2.70;;
1452;SDS011;720;47.738;7.998;2023-01-01T00:41:40;6.60;;;3.37;;
1452;SDS011;720;47.738;7.998;2023-01-01T00:44:06;12.33;;;2.53;;
1452;SDS011;720;47.738;7.998;2023-01-01T00:46:31;4.43;;;3.80;;
1452;SDS011;720;47.738;7.998;2023-01-01T00:48:57;11.57;;;4.20;;
1452;SDS011;720;47.738;7.998;2023-01-01T00:51:23;4.83;;;3.43;;
1452;SDS011;720;47.738;7.998;2023-01-01T00:53:48;5.67;;;3.50;;
1452;SDS011;720;47.738;7.998;2023-01-01T00:56:14;3.70;;;3.60;;
1452;SDS011;720;47.738;7.998;2023-01-01T00:58:39;1.47;;;1.47;;
1452;SDS011;720;47.738;7.998;2023-01-01T01:01:05;3.90;;;2.53;;
1452;SDS011;720;47.738;7.998;2023-01-01T01:03:31;4.90;;;4.57;;
1452;SDS011;720;47.738;7.998;2023-01-01T01:05:57;2.73;;;1.60;;
1452;SDS011;720;47.738;7.998;2023-01-01T01:08:26;2.10;;;2.00;;
1452;SDS011;720;47.738;7.998;2023-01-01T01:10:53;1.08;;;1.08;;
1452;SDS011;720;47.738;7.998;2023-01-01T01:13:19;1.40;;;1.40;;
1452;SDS011;720;47.738;7.998;2023-01-01T01:15:45;0.90;;;0.90;;
1452;SDS011;720;47.738;7.998;2023-01-01T01:18:11;1.35;;;1.25;;
1452;SDS011;720;47.738;7.998;2023-01-01T01:20:37;1.53;;;1.43;;
1452;SDS011;720;47.738;7.998;2023-01-01T01:23:03;0.93;;;0.90;;
1452;SDS011;720;47.738;7.998;2023-01-01T01:25:28;1.63;;;1.27;;
1452;SDS011;720;47.738;7.998;2023-01-01T01:27:54;1.60;;;1.50;;
1452;SDS011;720;47.738;7.998;2023-01-01T01:30:20;1.07;;;0.97;;
1452;SDS011;720;47.738;7.998;2023-01-01T01:32:45;2.57;;;0.90;;
1452;SDS011;720;47.738;7.998;2023-01-01T01:35:11;4.53;;;4.33;;
1452;SDS011;720;47.738;7.998;2023-01-01T01:37:36;1.07;;;1.03;;
1452;SDS011;720;47.738;7.998;2023-01-01T01:40:02;1.80;;;1.70;;
1452;SDS011;720;47.738;7.998;2023-01-01T01:42:28;1.05;;;1.05;;
1452;SDS011;720;47.738;7.998;2023-01-01T01:44:58;0.60;;;0.60;;
1452;SDS011;720;47.738;7.998;2023-01-01T01:47:28;0.57;;;0.57;;
1452;SDS011;720;47.738;7.998;2023-01-01T01:55:31;2.13;;;1.92;;
1452;SDS011;720;47.738;7.998;2023-01-01T01:58:01;0.70;;;0.70;;
1452;SDS011;720;47.738;7.998;2023-01-01T02:00:28;0.50;;;0.50;;
1452;SDS011;720;47.738;7.998;2023-01-01T02:02:55;0.70;;;0.65;;
1452;SDS011;720;47.738;7.998;2023-01-01T02:05:22;0.70;;;0.50;;
1452;SDS011;720;47.738;7.998;2023-01-01T02:07:49;0.50;;;0.50;;
1452;SDS011;720;47.738;7.998;2023-01-01T02:10:16;0.60;;;0.60;;
1452;SDS011;720;47.738;7.998;2023-01-01T02:12:42;1.10;;;0.97;;
1452;SDS011;720;47.738;7.998;2023-01-01T02:15:08;1.80;;;1.70;;
1452;SDS011;720;47.738;7.998;2023-01-01T02:17:39;0.45;;;0.45;;
1452;SDS011;720;47.738;7.998;2023-01-01T02:20:33;0.32;;;0.32;;
1452;SDS011;720;47.738;7.998;2023-01-01T02:28:04;0.80;;;0.80;;
1452;SDS011;720;47.738;7.998;2023-01-01T02:30:43;1.40;;;0.60;;
1452;SDS011;720;47.738;7.998;2023-01-01T02:33:12;0.30;;;0.30;;
1452;SDS011;720;47.738;7.998;2023-01-01T02:35:43;0.70;;;0.43;;
1452;SDS011;720;47.738;7.998;2023-01-01T02:38:29;1.00;;;0.93;;
1452;SDS011;720;47.738;7.998;2023-01-01T02:40:56;0.73;;;0.60;;
1452;SDS011;720;47.738;7.998;2023-01-01T02:43:25;1.15;;;1.15;;
1452;SDS011;720;47.738;7.998;2023-01-01T02:45:54;0.60;;;0.60;;
1452;SDS011;720;47.738;7.998;2023-01-01T02:56:37;0.57;;;0.50;;
1452;SDS011;720;47.738;7.998;2023-01-01T02:59:16;0.30;;;0.30;;
1452;SDS011;720;47.738;7.998;2023-01-01T03:08:11;0.30;;;0.30;;
1452;SDS011;720;47.738;7.998;2023-01-01T03:11:02;0.40;;;0.40;;
1452;SDS011;720;47.738;7.998;2023-01-01T03:13:39;1.45;;;0.55;;
1452;SDS011;720;47.738;7.998;2023-01-01T03:19:09;0.30;;;0.30;;
1452;SDS011;720;47.738;7.998;2023-01-01T03:21:45;0.70;;;0.70;;
1452;SDS011;720;47.738;7.998;2023-01-01T03:24:18;1.38;;;1.27;;
1452;SDS011;720;47.738;7.998;2023-01-01T03:26:52;0.75;;;0.70;;
1452;SDS011;720;47.738;7.998;2023-01-01T03:29:22;0.60;;;0.60;;
1452;SDS011;720;47.738;7.998;2023-01-01T03:31:51;1.08;;;1.08;;
1452;SDS011;720;47.738;7.998;2023-01-01T03:34:23;0.52;;;0.52;;
1452;SDS011;720;47.738;7.998;2023-01-01T03:36:54;0.30;;;0.30;;
1452;SDS011;720;47.738;7.998;2023-01-01T03:39:30;0.40;;;0.40;;
1452;SDS011;720;47.738;7.998;2023-01-01T03:45:15;0.50;;;0.50;;
1452;SDS011;720;47.738;7.998;2023-01-01T03:48:08;0.40;;;0.40;;
1452;SDS011;720;47.738;7.998;2023-01-01T03:53:33;1.40;;;1.38;;
1452;SDS011;720;47.738;7.998;2023-01-01T03:58:53;0.30;;;0.30;;
1452;SDS011;720;47.738;7.998;2023-01-01T04:01:31;3.17;;;1.05;;
1452;SDS011;720;47.738;7.998;2023-01-01T04:04:00;0.60;;;0.60;;
1452;SDS011;720;47.738;7.998;2023-01-01T04:06:29;3.50;;;1.33;;
1452;SDS011;720;47.738;7.998;2023-01-01T04:08:57;0.40;;;0.40;;
1452;SDS011;720;47.738;7.998;2023-01-01T04:11:25;0.57;;;0.57;;
1452;SDS011;720;47.738;7.998;2023-01-01T04:14:12;0.40;;;0.40;;
1452;SDS011;720;47.738;7.998;2023-01-01T04:16:37;2.40;;;2.30;;
1452;SDS011;720;47.738;7.998;2023-01-01T04:19:03;0.60;;;0.60;;
1452;SDS011;720;47.738;7.998;2023-01-01T04:21:32;0.30;;;0.30;;
1452;SDS011;720;47.738;7.998;2023-01-01T04:23:58;0.77;;;0.77;;
1452;SDS011;720;47.738;7.998;2023-01-01T04:26:23;0.30;;;0.30;;
1452;SDS011;720;47.738;7.998;2023-01-01T04:28:49;0.30;;;0.30;;
1452;SDS011;720;47.738;7.998;2023-01-01T04:31:14;0.50;;;0.50;;
1452;SDS011;720;47.738;7.998;2023-01-01T04:33:40;0.30;;;0.30;;
1452;SDS011;720;47.738;7.998;2023-01-01T04:36:07;0.57;;;0.57;;
1452;SDS011;720;47.738;7.998;2023-01-01T04:38:34;0.30;;;0.30;;
1452;SDS011;720;47.738;7.998;2023-01-01T04:41:01;0.52;;;0.52;;
1452;SDS011;720;47.738;7.998;2023-01-01T04:43:28;0.40;;;0.40;;
1452;SDS011;720;47.738;7.998;2023-01-01T04:45:55;0.40;;;0.40;;
1452;SDS011;720;47.738;7.998;2023-01-01T04:48:25;1.02;;;0.60;;
1452;SDS011;720;47.738;7.998;2023-01-01T04:50:55;1.35;;;0.82;;
1452;SDS011;720;47.738;7.998;2023-01-01T04:53:22;2.70;;;0.65;;
1452;SDS011;720;47.738;7.998;2023-01-01T04:55:48;0.60;;;0.60;;
1452;SDS011;720;47.738;7.998;2023-01-01T04:58:14;0.30;;;0.30;;
1452;SDS011;720;47.738;7.998;2023-01-01T05:00:39;0.50;;;0.50;;
1452;SDS011;720;47.738;7.998;2023-01-01T05:03:05;0.40;;;0.40;;
1452;SDS011;720;47.738;7.998;2023-01-01T05:05:31;1.23;;;1.23;;
1452;SDS011;720;47.738;7.998;2023-01-01T05:07:56;2.80;;;0.73;;
1452;SDS011;720;47.738;7.998;2023-01-01T05:10:22;9.63;;;1.73;;
1452;SDS011;720;47.738;7.998;2023-01-01T05:12:47;0.30;;;0.30;;
1452;SDS011;720;47.738;7.998;2023-01-01T05:15:13;0.80;;;0.80;;
1452;SDS011;720;47.738;7.998;2023-01-01T05:17:40;0.30;;;0.30;;
1452;SDS011;720;47.738;7.998;2023-01-01T05:20:05;0.60;;;0.60;;
1452;SDS011;720;47.738;7.998;2023-01-01T05:22:31;0.85;;;0.85;;
1452;SDS011;720;47.738;7.998;2023-01-01T05:24:57;1.37;;;1.30;;
1452;SDS011;720;47.738;7.998;2023-01-01T05:27:23;0.40;;;0.40;;
1452;SDS011;720;47.738;7.998;2023-01-01T05:29:48;0.37;;;0.37;;
1452;SDS011;720;47.738;7.998;2023-01-01T05:32:14;0.53;;;0.50;;
1452;SDS011;720;47.738;7.998;2023-01-01T05:34:39;7.33;;;0.87;;
1452;SDS011;720;47.738;7.998;2023-01-01T05:37:05;1.23;;;1.17;;
1452;SDS011;720;47.738;7.998;2023-01-01T05:39:30;0.40;;;0.40;;
1452;SDS011;720;47.738;7.998;2023-01-01T05:41:56;0.73;;;0.50;;
1452;SDS011;720;47.738;7.998;2023-01-01T05:44:22;0.40;;;0.40;;
1452;SDS011;720;47.738;7.998;2023-01-01T05:46:47;0.53;;;0.53;;
1452;SDS011;720;47.738;7.998;2023-01-01T05:49:13;1.10;;;1.10;;
1452;SDS011;720;47.738;7.998;2023-01-01T05:51:38;1.33;;;0.70;;
1452;SDS011;720;47.738;7.998;2023-01-01T05:54:04;0.83;;;0.53;;
1452;SDS011;720;47.738;7.998;2023-01-01T05:56:30;1.75;;;0.50;;
1452;SDS011;720;47.738;7.998;2023-01-01T05:58:56;0.60;;;0.60;;
1452;SDS011;720;47.738;7.998;2023-01-01T06:01:22;0.40;;;0.40;;
1452;SDS011;720;47.738;7.998;2023-01-01T06:03:51;0.40;;;0.40;;
1452;SDS011;720;47.738;7.998;2023-01-01T06:06:18;0.30;;;0.30;;
1452;SDS011;720;47.738;7.998;2023-01-01T06:08:49;0.30;;;0.30;;
1452;SDS011;720;47.738;7.998;2023-01-01T06:11:15;0.80;;;0.80;;
1452;SDS011;720;47.738;7.998;2023-01-01T06:13:41;0.40;;;0.40;;
1452;SDS011;720;47.738;7.998;2023-01-01T06:16:06;1.70;;;0.53;;
1452;SDS011;720;47.738;7.998;2023-01-01T06:18:33;0.95;;;0.95;;
1452;SDS011;720;47.738;7.998;2023-01-01T06:21:07;0.57;;;0.40;;
1452;SDS011;720;47.738;7.998;2023-01-01T06:23:34;0.82;;;0.50;;
1452;SDS011;720;47.738;7.998;2023-01-01T06:26:07;1.23;;;0.40;;
1452;SDS011;720;47.738;7.998;2023-01-01T06:28:41;0.30;;;0.30;;
1452;SDS011;720;47.738;7.998;2023-01-01T06:31:08;3.13;;;0.50;;
1452;SDS011;720;47.738;7.998;2023-01-01T06:33:36;3.17;;;1.48;;
1452;SDS011;720;47.738;7.998;2023-01-01T06:36:03;0.30;;;0.30;;
1452;SDS011;720;47.738;7.998;2023-01-01T06:38:31;2.67;;;1.40;;
1452;SDS011;720;47.738;7.998;2023-01-01T06:40:59;0.40;;;0.40;;
1452;SDS011;720;47.738;7.998;2023-01-01T06:43:28;0.60;;;0.60;;
1452;SDS011;720;47.738;7.998;2023-01-01T06:45:58;0.30;;;0.30;;
1452;SDS011;720;47.738;7.998;2023-01-01T06:48:25;0.30;;;0.30;;
1452;SDS011;720;47.738;7.998;2023-01-01T06:50:51;1.50;;;1.40;;
1452;SDS011;720;47.738;7.998;2023-01-01T06:53:17;1.83;;;1.73;;
1452;SDS011;720;47.738;7.998;2023-01-01T06:55:48;0.73;;;0.73;;
1452;SDS011;720;47.738;7.998;2023-01-01T06:58:14;0.30;;;0.30;;
1452;SDS011;720;47.738;7.998;2023-01-01T07:00:40;1.10;;;1.03;;
1452;SDS011;720;47.738;7.998;2023-01-01T07:03:06;0.30;;;0.30;;
1452;SDS011;720;47.738;7.998;2023-01-01T07:05:34;3.45;;;1.85;;
1452;SDS011;720;47.738;7.998;2023-01-01T07:08:00;2.97;;;2.00;;
1452;SDS011;720;47.738;7.998;2023-01-01T07:10:25;0.30;;;0.30;;
1452;SDS011;720;47.738;7.998;2023-01-01T07:12:51;0.40;;;0.40;;
1452;SDS011;720;47.738;7.998;2023-01-01T07:15:16;0.50;;;0.50;;
1452;SDS011;720;47.738;7.998;2023-01-01T07:17:42;4.43;;;2.63;;
1452;SDS011;720;47.738;7.998;2023-01-01T07:20:07;0.50;;;0.50;;
1452;SDS011;720;47.738;7.998;2023-01-01T07:22:34;1.10;;;1.10;;
1452;SDS011;720;47.738;7.998;2023-01-01T07:25:01;2.20;;;2.15;;
1452;SDS011;720;47.738;7.998;2023-01-01T07:27:27;0.30;;;0.30;;
1452;SDS011;720;47.738;7.998;2023-01-01T07:29:52;3.27;;;1.90;;
1452;SDS011;720;47.738;7.998;2023-01-01T07:32:18;0.40;;;0.40;;
1452;SDS011;720;47.738;7.998;2023-01-01T07:34:44;2.20;;;2.00;;
1452;SDS011;720;47.738;7.998;2023-01-01T07:37:09;0.40;;;0.40;;
1452;SDS011;720;47.738;7.998;2023-01-01T07:39:35;0.47;;;0.40;;
1452;SDS011;720;47.738;7.998;2023-01-01T07:42:00;1.00;;;0.90;;
1452;SDS011;720;47.738;7.998;2023-01-01T07:44:26;0.87;;;0.87;;
1452;SDS011;720;47.738;7.998;2023-01-01T07:47:00;1.00;;;1.00;;
1452;SDS011;720;47.738;7.998;2023-01-01T07:49:27;1.17;;;1.17;;
1452;SDS011;720;47.738;7.998;2023-01-01T07:51:53;0.80;;;0.80;;
1452;SDS011;720;47.738;7.998;2023-01-01T07:54:18;0.53;;;0.53;;
1452;SDS011;720;47.738;7.998;2023-01-01T07:56:44;0.40;;;0.40;;
1452;SDS011;720;47.738;7.998;2023-01-01T07:59:09;1.60;;;1.10;;
1452;SDS011;720;47.738;7.998;2023-01-01T08:01:35;0.60;;;0.60;;
1452;SDS011;720;47.738;7.998;2023-01-01T08:04:01;0.77;;;0.77;;
1452;SDS011;720;47.738;7.998;2023-01-01T08:06:27;0.43;;;0.43;;
1452;SDS011;720;47.738;7.998;2023-01-01T08:08:52;1.07;;;1.03;;
1452;SDS011;720;47.738;7.998;2023-01-01T08:11:18;0.70;;;0.70;;
1452;SDS011;720;47.738;7.998;2023-01-01T08:13:44;4.73;;;0.97;;
1452;SDS011;720;47.738;7.998;2023-01-01T08:16:10;1.23;;;0.90;;
1452;SDS011;720;47.738;7.998;2023-01-01T08:18:35;1.10;;;1.10;;
1452;SDS011;720;47.738;7.998;2023-01-01T08:21:01;0.80;;;0.80;;
1452;SDS011;720;47.738;7.998;2023-01-01T08:23:27;1.10;;;1.10;;
1452;SDS011;720;47.738;7.998;2023-01-01T08:25:56;0.70;;;0.70;;
1452;SDS011;720;47.738;7.998;2023-01-01T08:28:23;2.55;;;2.45;;
1452;SDS011;720;47.738;7.998;2023-01-01T08:30:48;0.67;;;0.67;;
1452;SDS011;720;47.738;7.998;2023-01-01T08:33:15;0.60;;;0.60;;
1452;SDS011;720;47.738;7.998;2023-01-01T08:35:41;0.80;;;0.80;;
1452;SDS011;720;47.738;7.998;2023-01-01T08:38:09;0.70;;;0.70;;
1452;SDS011;720;47.738;7.998;2023-01-01T08:40:35;0.83;;;0.83;;
1452;SDS011;720;47.738;7.998;2023-01-01T08:43:01;1.20;;;0.87;;
1452;SDS011;720;47.738;7.998;2023-01-01T08:45:27;0.90;;;0.90;;
1452;SDS011;720;47.738;7.998;2023-01-01T08:47:52;0.77;;;0.77;;
1452;SDS011;720;47.738;7.998;2023-01-01T08:50:18;0.70;;;0.70;;
1452;SDS011;720;47.738;7.998;2023-01-01T08:52:44;0.40;;;0.40;;
1452;SDS011;720;47.738;7.998;2023-01-01T08:55:09;1.03;;;0.60;;
1452;SDS011;720;47.738;7.998;2023-01-01T08:57:35;1.40;;;1.10;;
1452;SDS011;720;47.738;7.998;2023-01-01T09:00:00;0.90;;;0.90;;
1452;SDS011;720;47.738;7.998;2023-01-01T09:02:26;0.87;;;0.80;;
1452;SDS011;720;47.738;7.998;2023-01-01T09:04:51;0.60;;;0.60;;
1452;SDS011;720;47.738;7.998;2023-01-01T09:07:17;3.93;;;1.10;;
1452;SDS011;720;47.738;7.998;2023-01-01T09:09:43;0.60;;;0.60;;
1452;SDS011;720;47.738;7.998;2023-01-01T09:12:09;2.27;;;1.37;;
1452;SDS011;720;47.738;7.998;2023-01-01T09:14:38;0.97;;;0.97;;
1452;SDS011;720;47.738;7.998;2023-01-01T09:17:04;2.10;;;1.00;;
1452;SDS011;720;47.738;7.998;2023-01-01T09:19:29;0.87;;;0.87;;
1452;SDS011;720;47.738;7.998;2023-01-01T09:21:55;0.60;;;0.60;;
1452;SDS011;720;47.738;7.998;2023-01-01T09:24:21;0.50;;;0.50;;
1452;SDS011;720;47.738;7.998;2023-01-01T09:26:47;0.80;;;0.70;;
1452;SDS011;720;47.738;7.998;2023-01-01T09:29:13;0.87;;;0.87;;
1452;SDS011;720;47.738;7.998;2023-01-01T09:31:42;0.70;;;0.70;;
1452;SDS011;720;47.738;7.998;2023-01-01T09:34:09;0.57;;;0.57;;
1452;SDS011;720;47.738;7.998;2023-01-01T09:36:34;1.53;;;1.23;;
1452;SDS011;720;47.738;7.998;2023-01-01T09:39:00;0.70;;;0.70;;
1452;SDS011;720;47.738;7.998;2023-01-01T09:46:23;1.13;;;1.13;;
1452;SDS011;720;47.738;7.998;2023-01-01T09:48:54;4.63;;;1.17;;
1452;SDS011;720;47.738;7.998;2023-01-01T09:51:23;3.37;;;1.73;;
1452;SDS011;720;47.738;7.998;2023-01-01T09:56:30;2.20;;;0.60;;
1452;SDS011;720;47.738;7.998;2023-01-01T09:58:58;0.83;;;0.67;;
1452;SDS011;720;47.738;7.998;2023-01-01T10:01:32;0.80;;;0.80;;
1452;SDS011;720;47.738;7.998;2023-01-01T10:15:48;0.87;;;0.60;;
1452;SDS011;720;47.738;7.998;2023-01-01T10:18:27;1.63;;;1.40;;
1452;SDS011;720;47.738;7.998;2023-01-01T10:27:04;0.90;;;0.80;;
1452;SDS011;720;47.738;7.998;2023-01-01T10:29:35;0.57;;;0.57;;
1452;SDS011;720;47.738;7.998;2023-01-01T10:32:20;0.67;;;0.60;;
1452;SDS011;720;47.738;7.998;2023-01-01T10:34:51;0.50;;;0.50;;
1452;SDS011;720;47.738;7.998;2023-01-01T10:37:17;0.60;;;0.50;;
1452;SDS011;720;47.738;7.998;2023-01-01T10:39:43;1.03;;;0.60;;
1452;SDS011;720;47.738;7.998;2023-01-01T10:42:11;0.40;;;0.40;;
1452;SDS011;720;47.738;7.998;2023-01-01T10:44:38;0.70;;;0.70;;
1452;SDS011;720;47.738;7.998;2023-01-01T10:52:26;0.40;;;0.40;;
1452;SDS011;720;47.738;7.998;2023-01-01T10:54:55;0.80;;;0.43;;
1452;SDS011;720;47.738;7.998;2023-01-01T10:59:51;0.40;;;0.40;;
1452;SDS011;720;47.738;7.998;2023-01-01T11:04:47;0.70;;;0.70;;
1452;SDS011;720;47.738;7.998;2023-01-01T11:07:34;0.60;;;0.60;;
1452;SDS011;720;47.738;7.998;2023-01-01T11:10:02;0.40;;;0.40;;
1452;SDS011;720;47.738;7.998;2023-01-01T11:12:33;0.40;;;0.40;;
1452;SDS011;720;47.738;7.998;2023-01-01T11:15:00;1.17;;;1.07;;
1452;SDS011;720;47.738;7.998;2023-01-01T11:17:27;1.33;;;1.23;;
1452;SDS011;720;47.738;7.998;2023-01-01T11:19:56;0.60;;;0.60;;
1452;SDS011;720;47.738;7.998;2023-01-01T11:25:03;0.40;;;0.40;;
1452;SDS011;720;47.738;7.998;2023-01-01T11:27:44;0.40;;;0.40;;
1452;SDS011;720;47.738;7.998;2023-01-01T11:30:21;0.50;;;0.50;;
1452;SDS011;720;47.738;7.998;2023-01-01T11:32:50;0.30;;;0.30;;
1452;SDS011;720;47.738;7.998;2023-01-01T11:35:26;1.03;;;1.03;;
1452;SDS011;720;47.738;7.998;2023-01-01T11:37:53;0.97;;;0.97;;
1452;SDS011;720;47.738;7.998;2023-01-01T11:41:06;0.40;;;0.40;;
1452;SDS011;720;47.738;7.998;2023-01-01T11:43:14;0.30;;;0.30;;
1452;SDS011;720;47.738;7.998;2023-01-01T11:45:49;0.90;;;0.90;;
1452;SDS011;720;47.738;7.998;2023-01-01T11:48:24;0.40;;;0.40;;
1452;SDS011;720;47.738;7.998;2023-01-01T11:50:53;0.50;;;0.50;;
1452;SDS011;720;47.738;7.998;2023-01-01T11:58:39;1.73;;;0.63;;
1452;SDS011;720;47.738;7.998;2023-01-01T12:01:24;1.13;;;0.50;;
1452;SDS011;720;47.738;7.998;2023-01-01T12:03:56;1.70;;;1.60;;
1452;SDS011;720;47.738;7.998;2023-01-01T12:06:31;0.83;;;0.83;;
1452;SDS011;720;47.738;7.998;2023-01-01T12:12:00;0.30;;;0.30;;
1452;SDS011;720;47.738;7.998;2023-01-01T12:14:43;0.73;;;0.73;;
1452;SDS011;720;47.738;7.998;2023-01-01T12:17:24;0.93;;;0.93;;
1452;SDS011;720;47.738;7.998;2023-01-01T12:20:24;0.40;;;0.40;;
1452;SDS011;720;47.738;7.998;2023-01-01T12:22:55;0.47;;;0.47;;
1452;SDS011;720;47.738;7.998;2023-01-01T12:25:22;1.10;;;1.00;;
1452;SDS011;720;47.738;7.998;2023-01-01T12:35:46;0.50;;;0.50;;
1452;SDS011;720;47.738;7.998;2023-01-01T12:41:00;0.93;;;0.93;;
1452;SDS011;720;47.738;7.998;2023-01-01T12:46:41;0.50;;;0.50;;
1452;SDS011;720;47.738;7.998;2023-01-01T12:51:44;4.23;;;0.60;;
1452;SDS011;720;47.738;7.998;2023-01-01T12:59:56;0.63;;;0.63;;
1452;SDS011;720;47.738;7.998;2023-01-01T13:02:32;0.40;;;0.40;;
1452;SDS011;720;47.738;7.998;2023-01-01T13:05:03;0.60;;;0.60;;
1452;SDS011;720;47.738;7.998;2023-01-01T13:07:51;0.40;;;0.40;;
1452;SDS011;720;47.738;7.998;2023-01-01T13:10:25;0.40;;;0.40;;
1452;SDS011;720;47.738;7.998;2023-01-01T13:12:59;0.60;;;0.60;;
1452;SDS011;720;47.738;7.998;2023-01-01T13:15:41;0.40;;;0.40;;
1452;SDS011;720;47.738;7.998;2023-01-01T13:20:39;0.70;;;0.70;;
1452;SDS011;720;47.738;7.998;2023-01-01T13:23:05;0.50;;;0.50;;
1452;SDS011;720;47.738;7.998;2023-01-01T13:31:23;0.40;;;0.40;;
1452;SDS011;720;47.738;7.998;2023-01-01T13:39:51;0.40;;;0.40;;
1452;SDS011;720;47.738;7.998;2023-01-01T13:45:12;2.30;;;0.70;;
1452;SDS011;720;47.738;7.998;2023-01-01T14:01:59;1.47;;;1.40;;
1452;SDS011;720;47.738;7.998;2023-01-01T14:07:27;2.90;;;1.67;;
1452;SDS011;720;47.738;7.998;2023-01-01T14:12:43;0.70;;;0.70;;
1452;SDS011;720;47.738;7.998;2023-01-01T14:15:16;0.67;;;0.67;;
1452;SDS011;720;47.738;7.998;2023-01-01T14:17:50;0.60;;;0.50;;
1452;SDS011;720;47.738;7.998;2023-01-01T14:20:18;0.90;;;0.90;;
1452;SDS011;720;47.738;7.998;2023-01-01T14:22:46;0.73;;;0.73;;
1452;SDS011;720;47.738;7.998;2023-01-01T14:25:15;0.60;;;0.60;;
1452;SDS011;720;47.738;7.998;2023-01-01T14:27:53;0.70;;;0.70;;
1452;SDS011;720;47.738;7.998;2023-01-01T14:30:21;1.17;;;1.10;;
1452;SDS011;720;47.738;7.998;2023-01-01T14:32:57;1.23;;;1.13;;
1452;SDS011;720;47.738;7.998;2023-01-01T14:35:24;1.13;;;1.03;;
1452;SDS011;720;47.738;7.998;2023-01-01T14:37:50;1.33;;;1.00;;
1452;SDS011;720;47.738;7.998;2023-01-01T14:40:19;0.30;;;0.30;;
1452;SDS011;720;47.738;7.998;2023-01-01T14:42:59;0.50;;;0.50;;
1452;SDS011;720;47.738;7.998;2023-01-01T14:45:29;0.47;;;0.40;;
1452;SDS011;720;47.738;7.998;2023-01-01T14:47:58;2.20;;;1.23;;
1452;SDS011;720;47.738;7.998;2023-01-01T14:52:54;0.70;;;0.70;;
1452;SDS011;720;47.738;7.998;2023-01-01T14:55:27;0.60;;;0.60;;
1452;SDS011;720;47.738;7.998;2023-01-01T14:57:57;2.40;;;1.30;;
1452;SDS011;720;47.738;7.998;2023-01-01T15:00:25;1.57;;;1.43;;
1452;SDS011;720;47.738;7.998;2023-01-01T15:02:53;1.33;;;0.60;;
1452;SDS011;720;47.738;7.998;2023-01-01T15:05:29;0.73;;;0.73;;
1452;SDS011;720;47.738;7.998;2023-01-01T15:07:58;0.53;;;0.50;;
1452;SDS011;720;47.738;7.998;2023-01-01T15:10:26;0.50;;;0.50;;
1452;SDS011;720;47.738;7.998;2023-01-01T15:12:53;1.60;;;1.53;;
1452;SDS011;720;47.738;7.998;2023-01-01T15:21:14;0.73;;;0.73;;
1452;SDS011;720;47.738;7.998;2023-01-01T15:23:56;0.60;;;0.60;;
1452;SDS011;720;47.738;7.998;2023-01-01T15:26:26;0.80;;;0.80;;
1452;SDS011;720;47.738;7.998;2023-01-01T15:28:53;2.20;;;0.50;;
1452;SDS011;720;47.738;7.998;2023-01-01T15:31:19;1.13;;;1.03;;
1452;SDS011;720;47.738;7.998;2023-01-01T15:33:46;5.87;;;4.03;;
1452;SDS011;720;47.738;7.998;2023-01-01T15:36:12;8.43;;;5.20;;
1452;SDS011;720;47.738;7.998;2023-01-01T15:38:40;2.40;;;2.30;;
1452;SDS011;720;47.738;7.998;2023-01-01T15:44:31;1.10;;;1.00;;
1452;SDS011;720;47.738;7.998;2023-01-01T15:47:04;0.50;;;0.50;;
1452;SDS011;720;47.738;7.998;2023-01-01T15:49:37;0.88;;;0.88;;
1452;SDS011;720;47.738;7.998;2023-01-01T15:52:03;0.60;;;0.60;;
1452;SDS011;720;47.738;7.998;2023-01-01T15:54:37;0.40;;;0.40;;
1452;SDS011;720;47.738;7.998;2023-01-01T15:57:17;0.30;;;0.30;;
1452;SDS011;720;47.738;7.998;2023-01-01T15:59:45;1.25;;;1.25;;
1452;SDS011;720;47.738;7.998;2023-01-01T16:02:16;0.60;;;0.60;;
1452;SDS011;720;47.738;7.998;2023-01-01T16:04:46;0.80;;;0.80;;
1452;SDS011;720;47.738;7.998;2023-01-01T16:07:14;1.20;;;1.13;;
1452;SDS011;720;47.738;7.998;2023-01-01T16:09:43;1.60;;;0.70;;
1452;SDS011;720;47.738;7.998;2023-01-01T16:12:09;0.70;;;0.70;;
1452;SDS011;720;47.738;7.998;2023-01-01T16:14:34;0.80;;;0.80;;
1452;SDS011;720;47.738;7.998;2023-01-01T16:17:00;0.70;;;0.53;;
1452;SDS011;720;47.738;7.998;2023-01-01T16:19:26;5.33;;;2.27;;
1452;SDS011;720;47.738;7.998;2023-01-01T16:21:54;0.50;;;0.50;;
1452;SDS011;720;47.738;7.998;2023-01-01T16:24:20;0.50;;;0.50;;
1452;SDS011;720;47.738;7.998;2023-01-01T16:26:46;0.77;;;0.77;;
1452;SDS011;720;47.738;7.998;2023-01-01T16:29:12;0.95;;;0.88;;
1452;SDS011;720;47.738;7.998;2023-01-01T16:31:38;2.05;;;1.17;;
1452;SDS011;720;47.738;7.998;2023-01-01T16:34:04;2.60;;;2.40;;
1452;SDS011;720;47.738;7.998;2023-01-01T16:36:31;0.75;;;0.68;;
1452;SDS011;720;47.738;7.998;2023-01-01T16:38:57;1.58;;;0.85;;
1452;SDS011;720;47.738;7.998;2023-01-01T16:41:23;0.40;;;0.40;;
1452;SDS011;720;47.738;7.998;2023-01-01T16:43:50;1.02;;;0.77;;
1452;SDS011;720;47.738;7.998;2023-01-01T16:46:16;0.50;;;0.50;;
1452;SDS011;720;47.738;7.998;2023-01-01T16:48:42;0.67;;;0.67;;
1452;SDS011;720;47.738;7.998;2023-01-01T16:51:18;0.47;;;0.47;;
1452;SDS011;720;47.738;7.998;2023-01-01T16:53:46;1.67;;;1.58;;
1452;SDS011;720;47.738;7.998;2023-01-01T16:56:12;0.40;;;0.40;;
1452;SDS011;720;47.738;7.998;2023-01-01T16:58:39;1.30;;;1.20;;
1452;SDS011;720;47.738;7.998;2023-01-01T17:01:05;0.55;;;0.55;;
1452;SDS011;720;47.738;7.998;2023-01-01T17:03:31;0.87;;;0.83;;
1452;SDS011;720;47.738;7.998;2023-01-01T17:05:56;1.03;;;1.03;;
1452;SDS011;720;47.738;7.998;2023-01-01T17:08:26;0.73;;;0.73;;
1452;SDS011;720;47.738;7.998;2023-01-01T17:10:59;0.40;;;0.40;;
1452;SDS011;720;47.738;7.998;2023-01-01T17:13:29;0.30;;;0.30;;
1452;SDS011;720;47.738;7.998;2023-01-01T17:15:57;0.57;;;0.57;;
1452;SDS011;720;47.738;7.998;2023-01-01T17:18:22;0.93;;;0.60;;
1452;SDS011;720;47.738;7.998;2023-01-01T17:20:48;1.50;;;1.07;;
1452;SDS011;720;47.738;7.998;2023-01-01T17:23:13;0.40;;;0.40;;
1452;SDS011;720;47.738;7.998;2023-01-01T17:25:39;0.40;;;0.40;;
1452;SDS011;720;47.738;7.998;2023-01-01T17:28:05;0.40;;;0.40;;
1452;SDS011;720;47.738;7.998;2023-01-01T17:30:30;0.70;;;0.70;;
1452;SDS011;720;47.738;7.998;2023-01-01T17:32:56;0.30;;;0.30;;
1452;SDS011;720;47.738;7.998;2023-01-01T17:35:21;0.70;;;0.70;;
1452;SDS011;720;47.738;7.998;2023-01-01T17:37:47;1.53;;;1.43;;
1452;SDS011;720;47.738;7.998;2023-01-01T17:40:12;0.30;;;0.30;;
1452;SDS011;720;47.738;7.998;2023-01-01T17:42:38;0.60;;;0.60;;
1452;SDS011;720;47.738;7.998;2023-01-01T17:45:05;0.82;;;0.75;;
1452;SDS011;720;47.738;7.998;2023-01-01T17:47:31;4.68;;;1.50;;
1452;SDS011;720;47.738;7.998;2023-01-01T17:49:57;0.50;;;0.50;;
1452;SDS011;720;47.738;7.998;2023-01-01T17:52:23;0.60;;;0.60;;
1452;SDS011;720;47.738;7.998;2023-01-01T17:54:48;1.13;;;1.13;;
1452;SDS011;720;47.738;7.998;2023-01-01T17:57:15;0.40;;;0.40;;
1452;SDS011;720;47.738;7.998;2023-01-01T17:59:42;0.70;;;0.60;;
1452;SDS011;720;47.738;7.998;2023-01-01T18:02:11;2.05;;;1.60;;
1452;SDS011;720;47.738;7.998;2023-01-01T18:04:37;2.50;;;1.42;;
1452;SDS011;720;47.738;7.998;2023-01-01T18:07:03;1.30;;;0.80;;
1452;SDS011;720;47.738;7.998;2023-01-01T18:09:29;0.70;;;0.70;;
1452;SDS011;720;47.738;7.998;2023-01-01T18:11:55;0.93;;;0.73;;